Time;durP1;ratioP1;P1;durP2;ratioP2;P2;SDS_P1;SDS_P2;PMS_P1;PMS_P2;Temp;Humidity;BMP_temperature;BMP_pressure;BME280_temperature;BME280_humidity;BME280_pressure;Samples;Min_cycle;Max_cycle;Signal;HPM_P1;HPM_P2
2023/01/27 00:02:33;;;;;;;;;;;;;;;-7.31;46.64;97117.66;6202736;28;19926;-69
2023/01/27 00:05:37;;;;;;;;;;;;;;;-7.31;46.69;97144.94;6204806;28;20186;-69
2023/01/27 00:08:41;;;;;;;;;;;;;;;-7.20;47.06;97135.66;6224354;28;19931;-69
2023/01/27 00:15:06;;;;;;;;;;;;;;;-7.22;46.86;97116.88;6223903;28;20016;-69
2023/01/27 00:18:09;;;;;;;;;;;;;;;-7.17;46.77;97114.38;6222744;28;19925;-69
2023/01/27 00:24:36;;;;;;;;;;;;;;;-7.01;46.46;97116.22;6223793;28;19929;-69
2023/01/27 00:27:39;;;;;;;;;;;;;;;-7.12;46.74;97122.94;6223882;28;19921;-69
2023/01/27 00:30:42;;;;;;;;;;;;;;;-7.09;46.67;97116.16;6206297;28;19926;-69
2023/01/27 00:33:48;;;;;;;;;;;;;;;-6.98;46.57;97121.34;6223389;28;20036;-69
2023/01/27 00:36:51;;;;;;;;;;;;;;;-7.14;47.35;97119.50;6223668;28;20016;-69
2023/01/27 00:39:55;;;;;;;;;;;;;;;-7.06;47.52;97115.31;6223190;28;20045;-69
2023/01/27 00:42:59;;;;;;;;;;;;;;;-6.96;47.30;97112.00;6223276;28;19932;-68
2023/01/27 00:46:04;;;;;;;;;;;;;;;-6.92;46.95;97134.19;6223081;28;19944;-69
2023/01/27 00:49:07;;;;;;;;;;;;;;;-6.93;47.23;97109.47;6223183;28;19933;-69
2023/01/27 00:52:13;;;;;;;;;;;;;;;-6.81;47.32;97109.53;6223001;28;19926;-70
2023/01/27 00:55:19;;;;;;;;;;;;;;;-6.89;46.81;97103.50;6221964;28;20099;-69
2023/01/27 00:58:23;;;;;;;;;;;;;;;-6.89;47.01;97121.41;6222992;28;19975;-69
2023/01/27 01:01:27;;;;;;;;;;;;;;;-6.86;46.96;97106.09;6223020;28;20032;-69
2023/01/27 01:04:31;;;;;;;;;;;;;;;-6.91;47.17;97106.91;6223079;28;19979;-69
2023/01/27 01:07:34;;;;;;;;;;;;;;;-6.92;47.59;97106.03;6221544;28;19952;-69
2023/01/27 01:10:38;;;;;;;;;;;;;;;-6.90;47.10;97100.94;6222615;28;19987;-70
2023/01/27 01:13:42;;;;;;;;;;;;;;;-6.86;47.32;97090.72;6205145;28;20033;-69
2023/01/27 01:16:45;;;;;;;;;;;;;;;-6.83;47.47;97105.25;6189071;28;20395;-68
2023/01/27 01:19:48;;;;;;;;;;;;;;;-6.93;47.20;97089.00;6222646;28;20068;-69
2023/01/27 01:22:51;;;;;;;;;;;;;;;-6.92;48.12;97087.28;6222427;28;19988;-70
2023/01/27 01:25:55;;;;;;;;;;;;;;;-6.92;47.68;97094.97;6222432;28;20075;-69
2023/01/27 01:28:58;;;;;;;;;;;;;;;-6.87;47.41;97104.38;6204997;28;19932;-69
2023/01/27 01:32:02;;;;;;;;;;;;;;;-6.93;48.18;97106.91;6222074;28;19983;-70
2023/01/27 01:35:06;;;;;;;;;;;;;;;-6.86;48.01;97116.31;6222204;28;20067;-69
2023/01/27 01:38:09;;;;;;;;;;;;;;;-6.97;47.42;97105.16;6222206;28;20024;-69
2023/01/27 01:41:15;;;;;;;;;;;;;;;-6.87;47.19;97109.50;6222027;28;20015;-69
2023/01/27 01:44:23;;;;;;;;;;;;;;;-6.71;47.68;97109.59;6220969;28;20064;-69
2023/01/27 01:47:26;;;;;;;;;;;;;;;-6.80;46.90;97105.28;6221920;28;19931;-70
2023/01/27 01:50:29;;;;;;;;;;;;;;;-6.70;47.70;97119.00;6221981;28;19932;-69
2023/01/27 01:53:34;;;;;;;;;;;;;;;-6.59;47.24;97115.66;6204530;28;19932;-71
2023/01/27 01:56:36;;;;;;;;;;;;;;;-6.45;46.97;97118.31;6221796;28;19925;-68
2023/01/27 01:59:39;;;;;;;;;;;;;;;-6.41;46.75;97114.91;6203888;28;20023;-70
2023/01/27 02:02:43;;;;;;;;;;;;;;;-6.40;46.91;97110.63;6221825;28;19988;-70
2023/01/27 02:05:45;;;;;;;;;;;;;;;-6.30;46.73;97121.78;6204123;28;19988;-70
2023/01/27 02:08:49;;;;;;;;;;;;;;;-6.28;46.80;97132.88;6220065;28;19925;-68
2023/01/27 02:11:53;;;;;;;;;;;;;;;-6.26;46.74;97131.19;6203866;28;20415;-71
2023/01/27 02:14:57;;;;;;;;;;;;;;;-6.11;45.80;97137.25;6221162;28;20315;-69
2023/01/27 02:18:00;;;;;;;;;;;;;;;-6.18;46.67;97134.66;6221273;28;20463;-69
2023/01/27 02:21:03;;;;;;;;;;;;;;;-5.95;45.84;97138.16;6221029;28;20000;-69
2023/01/27 02:24:11;;;;;;;;;;;;;;;-5.99;46.10;97133.88;6221192;28;20047;-69
2023/01/27 02:27:13;;;;;;;;;;;;;;;-5.96;46.36;97139.03;6219288;28;20034;-70
2023/01/27 02:30:16;;;;;;;;;;;;;;;-5.90;46.02;97136.44;6220740;28;19925;-68
2023/01/27 02:33:19;;;;;;;;;;;;;;;-5.76;45.85;97133.94;6219377;28;19933;-69
2023/01/27 02:36:23;;;;;;;;;;;;;;;-5.82;45.92;97139.06;6203530;28;20412;-69
2023/01/27 02:39:28;;;;;;;;;;;;;;;-5.81;46.59;97155.28;6220496;28;19925;-70
2023/01/27 02:42:31;;;;;;;;;;;;;;;-5.63;45.91;97145.09;6220754;28;19950;-70
2023/01/27 02:45:34;;;;;;;;;;;;;;;-5.60;46.44;97152.81;6220653;28;19992;-70
2023/01/27 02:48:38;;;;;;;;;;;;;;;-5.60;45.70;97162.16;6220628;28;20067;-69
2023/01/27 02:51:42;;;;;;;;;;;;;;;-5.40;45.59;97157.13;6220801;28;20377;-69
2023/01/27 02:54:45;;;;;;;;;;;;;;;-5.30;45.66;97151.16;6220574;28;19925;-70
2023/01/27 02:57:48;;;;;;;;;;;;;;;-5.35;45.25;97152.84;6220295;28;20040;-68
2023/01/27 03:00:51;;;;;;;;;;;;;;;-5.29;45.26;97147.75;6220459;28;20412;-69
2023/01/27 03:03:54;;;;;;;;;;;;;;;-5.29;45.34;97153.72;6220551;28;20414;-70
2023/01/27 03:06:57;;;;;;;;;;;;;;;-5.45;45.57;97157.97;6220055;28;20031;-69
2023/01/27 03:10:00;;;;;;;;;;;;;;;-5.32;45.47;97165.66;6202889;28;20410;-69
2023/01/27 03:13:04;;;;;;;;;;;;;;;-5.49;45.28;97169.06;6220055;28;20021;-69
2023/01/27 03:19:28;;;;;;;;;;;;;;;-5.28;44.19;97167.41;6202235;28;20302;-69
2023/01/27 03:22:31;;;;;;;;;;;;;;;-5.39;45.23;97166.53;6220284;28;20024;-69
2023/01/27 03:25:35;;;;;;;;;;;;;;;-5.46;44.97;97187.03;6220077;28;20057;-69
2023/01/27 03:28:39;;;;;;;;;;;;;;;-5.46;44.97;97171.66;6220143;28;20019;-69
2023/01/27 03:31:41;;;;;;;;;;;;;;;-5.35;44.84;97158.84;6219971;28;19927;-69
2023/01/27 03:34:44;;;;;;;;;;;;;;;-5.36;44.97;97182.78;6220047;28;20410;-69
2023/01/27 03:47:51;;;;;;;;;;;;;;;-5.47;45.12;97193.00;6224467;28;20355;-69
2023/01/27 03:50:58;;;;;;;;;;;;;;;-5.44;45.55;97180.19;6207120;28;20529;-70
2023/01/27 03:54:01;;;;;;;;;;;;;;;-5.42;44.80;97198.16;6223093;28;20417;-69
2023/01/27 03:57:04;;;;;;;;;;;;;;;-5.57;45.13;97204.09;6224165;28;19925;-68
2023/01/27 04:00:08;;;;;;;;;;;;;;;-5.24;44.89;97192.19;6224256;28;19932;-70
2023/01/27 04:09:54;;;;;;;;;;;;;;;-5.25;44.30;97198.19;6224078;28;20107;-69
2023/01/27 04:12:57;;;;;;;;;;;;;;;-5.20;44.84;97206.75;6223790;28;19972;-69
2023/01/27 04:15:59;;;;;;;;;;;;;;;-5.17;44.55;97198.22;6222789;28;20003;-69
2023/01/27 04:19:04;;;;;;;;;;;;;;;-5.23;44.49;97215.31;6222431;28;19922;-69
2023/01/27 04:22:07;;;;;;;;;;;;;;;-4.83;43.22;97219.66;6223830;28;19948;-70
2023/01/27 04:25:10;;;;;;;;;;;;;;;-4.88;43.71;97226.50;6223685;28;20003;-69
2023/01/27 04:28:14;;;;;;;;;;;;;;;-4.84;42.86;97243.59;6223535;28;19968;-69
2023/01/27 04:31:17;;;;;;;;;;;;;;;-4.85;43.00;97223.91;6222490;28;19926;-69
2023/01/27 04:34:21;;;;;;;;;;;;;;;-4.91;43.37;97226.50;6223412;28;20032;-69
2023/01/27 04:37:24;;;;;;;;;;;;;;;-4.87;43.42;97218.81;6222079;28;20072;-69
2023/01/27 04:40:28;;;;;;;;;;;;;;;-4.95;43.74;97225.63;6223230;28;19957;-69
2023/01/27 04:43:32;;;;;;;;;;;;;;;-4.84;43.16;97225.63;6223400;28;19932;-69
2023/01/27 04:46:35;;;;;;;;;;;;;;;-4.78;43.35;97239.34;6222217;28;19925;-71
2023/01/27 04:49:41;;;;;;;;;;;;;;;-4.74;42.64;97243.63;6206179;28;19921;-68
2023/01/27 04:52:44;;;;;;;;;;;;;;;-4.73;42.76;97226.50;6221078;28;19925;-68
2023/01/27 04:55:46;;;;;;;;;;;;;;;-4.63;42.53;97235.94;6221529;28;20020;-70
2023/01/27 04:58:49;;;;;;;;;;;;;;;-4.54;42.40;97233.34;6205676;28;20458;-69
2023/01/27 05:01:53;;;;;;;;;;;;;;;-4.56;42.68;97219.69;6221469;28;19932;-71
2023/01/27 05:04:57;;;;;;;;;;;;;;;-4.55;42.76;97225.66;6205562;28;20024;-69
2023/01/27 05:08:04;;;;;;;;;;;;;;;-4.21;41.68;97226.50;6222350;28;19926;-69
2023/01/27 05:11:07;;;;;;;;;;;;;;;-4.20;41.93;97228.22;6222532;28;20450;-70
2023/01/27 05:14:22;;;;;;;;;;;;;;;-4.13;41.67;97229.06;6221135;28;19925;-68
2023/01/27 05:17:30;;;;;;;;;;;;;;;-4.02;42.07;97216.19;6221221;28;19932;-68
2023/01/27 05:20:33;;;;;;;;;;;;;;;-3.88;41.19;97223.03;6222322;28;19929;-69
2023/01/27 05:23:39;;;;;;;;;;;;;;;-3.89;41.25;97223.03;6222284;28;20320;-69
2023/01/27 05:26:42;;;;;;;;;;;;;;;-3.67;40.79;97219.53;6188250;28;20438;-69
2023/01/27 05:29:44;;;;;;;;;;;;;;;-3.80;41.08;97230.69;6204460;28;20018;-69
2023/01/27 05:32:48;;;;;;;;;;;;;;;-3.73;41.25;97229.84;6222082;28;20424;-69
2023/01/27 05:36:00;;;;;;;;;;;;;;;-3.67;41.16;97229.81;6204698;28;19929;-69
2023/01/27 05:39:09;;;;;;;;;;;;;;;-3.35;40.49;97251.13;6221667;28;19936;-69
2023/01/27 05:42:17;;;;;;;;;;;;;;;-3.36;40.25;97260.59;6221897;28;19930;-69
2023/01/27 05:45:20;;;;;;;;;;;;;;;-3.40;40.61;97243.44;6204435;28;20078;-69
2023/01/27 05:48:30;;;;;;;;;;;;;;;-3.32;40.25;97241.69;6220372;28;19921;-69
2023/01/27 05:51:34;;;;;;;;;;;;;;;-3.23;39.98;97251.97;6220016;28;19925;-69
2023/01/27 05:54:37;;;;;;;;;;;;;;;-3.19;39.93;97257.94;6204298;28;19925;-70
2023/01/27 05:57:49;;;;;;;;;;;;;;;-2.98;39.62;97256.97;6221422;28;19929;-69
2023/01/27 06:00:52;;;;;;;;;;;;;;;-3.05;39.85;97260.44;6219686;28;20012;-69
2023/01/27 06:03:55;;;;;;;;;;;;;;;-3.00;39.91;97250.97;6220645;28;20406;-69
2023/01/27 06:06:59;;;;;;;;;;;;;;;-2.75;39.19;97260.25;6203535;28;19984;-69
2023/01/27 06:10:04;;;;;;;;;;;;;;;-2.38;38.45;97260.00;6221003;28;19957;-70
2023/01/27 06:13:08;;;;;;;;;;;;;;;-2.26;38.85;97274.53;6219345;28;20352;-70
2023/01/27 06:16:22;;;;;;;;;;;;;;;-2.13;37.91;97273.56;6219988;28;20403;-69
2023/01/27 06:19:35;;;;;;;;;;;;;;;-1.94;37.44;97276.84;6220615;28;19925;-70
2023/01/27 06:23:23;;;;;;;;;;;;;;;-1.87;37.67;97282.78;6223327;28;20433;-69
2023/01/27 06:26:26;;;;;;;;;;;;;;;-1.93;37.39;97265.63;6203267;28;20019;-71
2023/01/27 06:29:40;;;;;;;;;;;;;;;-2.09;37.21;97282.16;6187961;28;19926;-72
2023/01/27 06:32:48;;;;;;;;;;;;;;;-2.36;37.35;97298.66;6203263;28;19933;-69
2023/01/27 06:36:12;;;;;;;;;;;;;;;-2.85;38.13;97286.94;6218327;28;19925;-70
2023/01/27 06:39:37;;;;;;;;;;;;;;;-3.24;38.67;97295.69;6206315;28;20103;-70
2023/01/27 06:42:43;;;;;;;;;;;;;;;-3.28;38.62;97294.88;6218969;28;20023;-70
2023/01/27 06:45:48;;;;;;;;;;;;;;;-3.49;38.96;97294.91;6220412;28;19926;-70
2023/01/27 06:48:51;;;;;;;;;;;;;;;-3.42;39.33;97283.78;6202493;28;20038;-69
2023/01/27 06:51:56;;;;;;;;;;;;;;;-2.61;38.30;97283.34;6220065;28;19925;-71
2023/01/27 06:55:03;;;;;;;;;;;;;;;0.21;34.01;97289.53;6218192;28;19932;-70
2023/01/27 06:58:10;;;;;;;;;;;;;;;4.65;29.69;97299.78;6218903;28;19941;-71
2023/01/27 07:01:12;;;;;;;;;;;;;;;9.15;26.04;97307.41;6202611;28;19926;-69
2023/01/27 07:04:15;;;;;;;;;;;;;;;11.55;22.95;97311.31;6220148;28;20040;-70
2023/01/27 07:07:18;;;;;;;;;;;;;;;11.07;23.38;97320.38;6220506;28;20028;-70
2023/01/27 07:10:21;;;;;;;;;;;;;;;9.02;23.38;97301.09;6220337;28;20024;-71
2023/01/27 07:13:24;;;;;;;;;;;;;;;7.06;26.05;97306.91;6219486;28;19925;-69
2023/01/27 07:16:27;;;;;;;;;;;;;;;5.46;28.37;97285.53;6224059;28;19932;-69
2023/01/27 07:19:31;;;;;;;;;;;;;;;4.22;29.33;97288.19;6207660;28;20414;-69
2023/01/27 07:22:35;;;;;;;;;;;;;;;3.68;30.32;97287.28;6207638;28;20071;-71
2023/01/27 07:25:38;;;;;;;;;;;;;;;3.49;30.16;97300.00;6207828;28;19976;-70
2023/01/27 07:28:41;;;;;;;;;;;;;;;3.48;28.08;97290.50;6223751;28;19928;-71
2023/01/27 07:31:45;;;;;;;;;;;;;;;3.01;28.13;97300.53;6207312;28;19948;-70
2023/01/27 07:34:47;;;;;;;;;;;;;;;2.85;27.69;97294.88;6223422;28;19925;-70
2023/01/27 07:37:51;;;;;;;;;;;;;;;2.76;27.81;97284.75;6223534;28;19932;-70
2023/01/27 07:40:55;;;;;;;;;;;;;;;2.63;27.66;97294.63;6223538;28;19948;-70
2023/01/27 07:43:58;;;;;;;;;;;;;;;2.77;27.70;97290.78;6224727;28;19925;-68
2023/01/27 07:47:02;;;;;;;;;;;;;;;2.90;27.69;97300.81;6207554;28;19960;-70
2023/01/27 07:50:25;;;;;;;;;;;;;;;;;;;;;
2023/01/27 07:53:30;;;;;;;;;;;;;;;3.14;27.33;97286.28;6224096;28;20574;-72
2023/01/27 07:56:36;;;;;;;;;;;;;;;3.07;27.67;97284.75;6224208;28;20446;-70
2023/01/27 07:59:40;;;;;;;;;;;;;;;3.01;27.59;97287.53;6224186;28;20078;-70
2023/01/27 08:02:44;;;;;;;;;;;;;;;2.85;27.12;97288.84;6224075;28;19932;-70
2023/01/27 08:05:48;;;;;;;;;;;;;;;2.41;27.52;97288.28;6223773;28;20011;-71
2023/01/27 08:08:52;;;;;;;;;;;;;;;2.33;27.46;97296.28;6206182;28;20357;-72
2023/01/27 08:12:02;;;;;;;;;;;;;;;2.13;27.34;97301.97;6223552;28;19936;-70
2023/01/27 08:23:33;;;;;;;;;;;;;;;1.21;28.29;97311.81;6218545;28;19925;-71
2023/01/27 08:26:36;;;;;;;;;;;;;;;0.91;28.96;97310.69;6222762;28;19925;-70
2023/01/27 08:29:39;;;;;;;;;;;;;;;1.07;28.66;97316.41;6223438;28;19925;-70
2023/01/27 08:32:44;;;;;;;;;;;;;;;1.41;28.78;97307.94;6223510;28;20310;-69
2023/01/27 08:35:48;;;;;;;;;;;;;;;1.55;28.37;97311.09;6223121;28;19925;-70
2023/01/27 08:38:51;;;;;;;;;;;;;;;1.67;28.40;97304.75;6223230;28;20419;-71
2023/01/27 08:41:55;;;;;;;;;;;;;;;1.78;28.53;97295.88;6223205;28;20019;-70
2023/01/27 08:44:59;;;;;;;;;;;;;;;1.50;29.07;97310.31;6222270;28;19925;-70
2023/01/27 08:48:01;;;;;;;;;;;;;;;1.29;29.34;97299.53;6222263;28;19985;-70
2023/01/27 08:51:06;;;;;;;;;;;;;;;1.21;29.43;97295.41;6223086;28;20378;-69
2023/01/27 08:54:10;;;;;;;;;;;;;;;0.90;29.69;97278.72;6222033;28;19968;-70
2023/01/27 08:57:18;;;;;;;;;;;;;;;0.82;29.37;97288.41;6223058;28;19933;-71
2023/01/27 09:00:21;;;;;;;;;;;;;;;0.52;30.09;97274.31;6205361;28;19926;-69
2023/01/27 09:03:25;;;;;;;;;;;;;;;0.42;30.01;97272.75;6222933;28;20449;-71
2023/01/27 09:06:28;;;;;;;;;;;;;;;0.71;29.77;97267.06;6222855;28;19943;-71
2023/01/27 09:09:34;;;;;;;;;;;;;;;2.34;28.14;97263.34;6222761;28;19926;-71
2023/01/27 09:12:38;;;;;;;;;;;;;;;5.51;24.72;97273.16;6222855;28;19976;-69
2023/01/27 09:15:42;;;;;;;;;;;;;;;5.03;24.71;97276.69;6222580;28;19932;-70
2023/01/27 09:18:45;;;;;;;;;;;;;;;3.97;25.62;97282.91;6221434;28;19925;-70
2023/01/27 09:21:48;;;;;;;;;;;;;;;3.16;26.33;97262.81;6222496;28;19926;-71
2023/01/27 09:24:52;;;;;;;;;;;;;;;2.60;26.74;97299.88;6222300;28;20012;-69
2023/01/27 09:27:57;;;;;;;;;;;;;;;2.09;27.80;97282.13;6221247;28;19925;-71
2023/01/27 09:31:00;;;;;;;;;;;;;;;1.95;27.89;97264.34;6222316;28;19932;-70
2023/01/27 09:34:04;;;;;;;;;;;;;;;1.68;28.67;97265.84;6222223;28;20427;-70
2023/01/27 09:37:09;;;;;;;;;;;;;;;1.63;28.97;97288.44;6220997;28;19925;-71
2023/01/27 09:40:20;;;;;;;;;;;;;;;1.26;29.49;97278.88;6221587;28;19925;-71
2023/01/27 09:43:42;;;;;;;;;;;;;;;1.11;29.40;97279.19;6220774;28;19949;-71
2023/01/27 09:50:42;;;;;;;;;;;;;;;0.70;30.81;97288.63;6205389;28;20512;-70
2023/01/27 09:54:11;;;;;;;;;;;;;;;0.71;30.83;97294.66;6221751;28;19925;-70
2023/01/27 09:57:21;;;;;;;;;;;;;;;1.04;30.71;97293.16;6218590;28;20425;-69
2023/01/27 10:00:26;;;;;;;;;;;;;;;3.05;28.13;97275.28;6221785;28;19988;-69
2023/01/27 10:03:35;;;;;;;;;;;;;;;4.29;26.82;97284.47;6220280;28;20028;-70
2023/01/27 10:06:40;;;;;;;;;;;;;;;4.02;26.89;97284.47;6221375;28;19933;-71
2023/01/27 10:10:01;;;;;;;;;;;;;;;3.17;27.79;97264.56;6203727;28;19932;-70
2023/01/27 10:13:23;;;;;;;;;;;;;;;2.46;28.65;97265.63;6220323;28;19925;-71
2023/01/27 10:16:52;;;;;;;;;;;;;;;1.71;29.36;97257.97;6204080;28;20441;-70
2023/01/27 10:20:25;;;;;;;;;;;;;;;1.22;30.37;97256.50;6220128;28;20399;-71
2023/01/27 10:23:42;;;;;;;;;;;;;;;3.45;28.18;97248.94;6221230;28;20303;-70
2023/01/27 10:26:54;;;;;;;;;;;;;;;7.78;23.59;97268.72;6221143;28;19925;-70
2023/01/27 10:30:08;;;;;;;;;;;;;;;11.10;20.87;97267.56;6204527;28;19929;-68
2023/01/27 10:33:20;;;;;;;;;;;;;;;12.98;19.53;97273.06;6221030;28;19925;-71
2023/01/27 10:36:36;;;;;;;;;;;;;;;14.10;18.93;97265.22;6220685;28;19925;-70
2023/01/27 10:39:50;;;;;;;;;;;;;;;14.24;18.32;97277.41;6220659;28;19925;-71
2023/01/27 10:43:05;;;;;;;;;;;;;;;11.45;18.97;97274.13;6219155;28;19926;-70
2023/01/27 10:46:14;;;;;;;;;;;;;;;8.29;22.98;97267.13;6220920;28;19925;-70
2023/01/27 10:49:23;;;;;;;;;;;;;;;5.97;24.93;97271.38;6203120;28;19972;-71
2023/01/27 10:52:47;;;;;;;;;;;;;;;4.15;27.03;97276.25;6219314;28;20410;-70
2023/01/27 10:55:58;;;;;;;;;;;;;;;2.92;28.08;97280.84;6218917;28;19933;-69
2023/01/27 10:59:07;;;;;;;;;;;;;;;2.35;28.80;97272.84;6220616;28;19984;-70
2023/01/27 11:02:11;;;;;;;;;;;;;;;2.16;28.56;97288.91;6219182;28;20023;-70
2023/01/27 11:05:20;;;;;;;;;;;;;;;1.80;28.57;97273.31;6219356;28;19932;-70
2023/01/27 11:08:27;;;;;;;;;;;;;;;1.02;29.78;97282.84;6203218;28;19925;-70
2023/01/27 11:11:44;;;;;;;;;;;;;;;0.43;30.05;97285.69;6220507;28;20312;-70
2023/01/27 11:14:51;;;;;;;;;;;;;;;0.29;30.87;97298.03;6220370;28;19925;-70
2023/01/27 11:18:00;;;;;;;;;;;;;;;-0.25;31.24;97285.97;6202781;28;19925;-70
2023/01/27 11:21:11;;;;;;;;;;;;;;;-0.51;31.15;97286.38;6202975;28;19932;-70
2023/01/27 11:24:28;;;;;;;;;;;;;;;-0.37;31.66;97290.47;6219078;28;19929;-71
2023/01/27 11:27:53;;;;;;;;;;;;;;;-0.79;31.95;97282.44;6220750;28;19933;-70
2023/01/27 11:31:15;;;;;;;;;;;;;;;-1.14;33.22;97289.75;6202976;28;20120;-70
2023/01/27 11:34:44;;;;;;;;;;;;;;;-1.11;33.09;97267.34;6218475;28;20470;-71
2023/01/27 11:38:17;;;;;;;;;;;;;;;-1.33;33.40;97266.75;6219120;28;20016;-70
2023/01/27 11:41:23;;;;;;;;;;;;;;;-1.45;33.00;97271.19;6195007;28;19926;-70
2023/01/27 11:44:33;;;;;;;;;;;;;;;-1.23;33.58;97265.78;6195814;28;19933;-70
2023/01/27 11:47:38;;;;;;;;;;;;;;;-1.24;33.25;97253.75;6195855;28;19928;-69
2023/01/27 11:50:42;;;;;;;;;;;;;;;-1.14;32.55;97250.16;6194657;28;19949;-70
2023/01/27 11:53:50;;;;;;;;;;;;;;;-1.19;32.89;97254.53;6195027;28;19921;-69
2023/01/27 11:56:52;;;;;;;;;;;;;;;-1.34;33.08;97262.47;6194369;28;19926;-70
2023/01/27 12:00:02;;;;;;;;;;;;;;;-1.47;33.28;97266.91;6195467;28;19929;-69
2023/01/27 12:03:04;;;;;;;;;;;;;;;-1.57;33.11;97279.06;6182463;28;19925;-70
2023/01/27 12:06:15;;;;;;;;;;;;;;;-1.52;33.00;97273.88;6199619;28;19948;-70
2023/01/27 12:09:30;;;;;;;;;;;;;;;-1.26;32.71;97265.81;6200168;28;20378;-70
2023/01/27 12:12:36;;;;;;;;;;;;;;;-1.53;33.74;97275.56;6214861;28;19925;-71
2023/01/27 12:15:46;;;;;;;;;;;;;;;-1.45;34.63;97270.31;6199590;28;19948;-71
2023/01/27 12:19:03;;;;;;;;;;;;;;;-1.62;34.92;97267.94;6198190;28;19926;-73
2023/01/27 12:22:47;;;;;;;;;;;;;;;-2.08;35.29;97253.75;6198439;28;20489;-70
2023/01/27 12:25:57;;;;;;;;;;;;;;;-2.36;35.70;97260.84;6198134;28;20029;-70
2023/01/27 12:29:03;;;;;;;;;;;;;;;-2.36;36.04;97253.13;6199414;28;19957;-71
2023/01/27 12:32:14;;;;;;;;;;;;;;;-2.48;36.24;97253.22;6199506;28;19933;-71
2023/01/27 12:35:25;;;;;;;;;;;;;;;-2.55;36.02;97255.00;6198200;28;19930;-71
2023/01/27 12:38:34;;;;;;;;;;;;;;;-2.64;36.36;97247.31;6199264;28;19925;-69
2023/01/27 12:41:36;;;;;;;;;;;;;;;-2.56;36.25;97235.25;6218172;28;20007;-69
2023/01/27 12:44:41;;;;;;;;;;;;;;;-2.34;35.96;97241.09;6223632;28;20395;-70
2023/01/27 12:47:55;;;;;;;;;;;;;;;-2.69;36.60;97258.50;6223522;28;19944;-70
2023/01/27 12:51:04;;;;;;;;;;;;;;;-2.85;36.82;97253.47;6222138;28;19925;-71
2023/01/27 12:54:32;;;;;;;;;;;;;;;-2.95;36.73;97254.38;6223167;28;19926;-71
2023/01/27 12:57:42;;;;;;;;;;;;;;;-2.86;36.65;97254.34;6222354;28;19936;-70
2023/01/27 13:00:47;;;;;;;;;;;;;;;-2.82;35.92;97247.44;6205129;28;19925;-69
2023/01/27 13:03:57;;;;;;;;;;;;;;;-2.61;34.71;97230.97;6221534;28;19925;-70
2023/01/27 13:07:04;;;;;;;;;;;;;;;-2.28;34.48;97238.47;6222668;28;19929;-70
2023/01/27 13:10:16;;;;;;;;;;;;;;;-2.12;33.73;97223.72;6205163;28;19933;-70
2023/01/27 13:13:22;;;;;;;;;;;;;;;-2.07;33.59;97224.53;6222274;28;19936;-69
2023/01/27 13:16:29;;;;;;;;;;;;;;;-2.24;33.51;97212.66;6222268;28;19932;-70
2023/01/27 13:19:43;;;;;;;;;;;;;;;-2.21;33.50;97222.94;6222516;28;19929;-70
2023/01/27 13:22:52;;;;;;;;;;;;;;;-2.11;32.98;97222.00;6222524;28;19925;-70
2023/01/27 13:25:57;;;;;;;;;;;;;;;-1.95;32.46;97202.94;6221029;28;19925;-70
2023/01/27 13:29:04;;;;;;;;;;;;;;;-2.07;32.83;97206.50;6222372;28;20005;-70
2023/01/27 13:32:15;;;;;;;;;;;;;;;-1.92;32.82;97233.84;6220934;28;19980;-71
2023/01/27 13:35:44;;;;;;;;;;;;;;;-2.06;32.73;97230.53;6222081;28;19932;-69
2023/01/27 13:38:55;;;;;;;;;;;;;;;-2.00;32.71;97214.16;6214243;28;19949;-70
2023/01/27 13:42:17;;;;;;;;;;;;;;;-1.82;31.95;97225.13;6221773;28;19990;-70
2023/01/27 13:45:28;;;;;;;;;;;;;;;-1.91;32.25;97217.50;6204261;28;20060;-71
2023/01/27 13:48:34;;;;;;;;;;;;;;;-1.89;32.26;97213.19;6221684;28;19932;-70
2023/01/27 13:51:37;;;;;;;;;;;;;;;-1.84;32.68;97234.63;6221848;28;19931;-71
2023/01/27 13:54:41;;;;;;;;;;;;;;;-1.72;32.01;97225.06;6221701;28;19926;-69
2023/01/27 13:57:53;;;;;;;;;;;;;;;-1.58;32.17;97229.19;6221496;28;19948;-71
2023/01/27 14:01:05;;;;;;;;;;;;;;;-1.70;31.94;97243.94;6221409;28;19925;-70
2023/01/27 14:04:10;;;;;;;;;;;;;;;-1.71;31.56;97249.97;6220145;28;20110;-69
2023/01/27 14:07:18;;;;;;;;;;;;;;;-1.81;31.54;97252.66;6221381;28;19925;-70
2023/01/27 14:10:31;;;;;;;;;;;;;;;-1.95;32.26;97248.47;6204049;28;19933;-71
2023/01/27 14:13:37;;;;;;;;;;;;;;;-1.93;32.40;97245.00;6220224;28;19940;-69
2023/01/27 14:16:43;;;;;;;;;;;;;;;-1.98;32.11;97244.22;6221293;28;20456;-71
2023/01/27 14:19:48;;;;;;;;;;;;;;;-2.03;32.51;97246.84;6221145;28;19934;-69
2023/01/27 14:23:09;;;;;;;;;;;;;;;-2.05;32.51;97252.88;6220993;28;19932;-71
2023/01/27 14:26:26;;;;;;;;;;;;;;;-2.03;32.22;97245.97;6221170;28;19928;-71
2023/01/27 14:29:29;;;;;;;;;;;;;;;-2.07;32.55;97267.50;6221087;28;20399;-70
2023/01/27 14:32:41;;;;;;;;;;;;;;;-2.09;33.04;97256.34;6219862;28;19925;-71
2023/01/27 14:35:49;;;;;;;;;;;;;;;-2.15;32.94;97235.75;6221021;28;20311;-70
2023/01/27 14:38:56;;;;;;;;;;;;;;;-2.23;32.83;97227.28;6220850;28;19940;-70
2023/01/27 14:42:04;;;;;;;;;;;;;;;-2.23;33.16;97233.28;6220959;28;20011;-72
2023/01/27 14:45:22;;;;;;;;;;;;;;;-2.35;33.52;97218.78;6219846;28;20213;-70
2023/01/27 14:48:57;;;;;;;;;;;;;;;-2.44;34.03;97215.41;6202868;28;19999;-72
2023/01/27 14:52:19;;;;;;;;;;;;;;;-2.54;34.10;97232.66;6220793;28;19925;-70
2023/01/27 14:56:14;;;;;;;;;;;;;;;-2.74;34.48;97231.06;6209207;28;19929;-69
2023/01/27 14:59:42;;;;;;;;;;;;;;;-2.77;34.25;97218.22;6220609;28;20406;-71
2023/01/27 15:02:58;;;;;;;;;;;;;;;-2.95;34.61;97205.44;6202432;28;20450;-70
2023/01/27 15:06:05;;;;;;;;;;;;;;;-3.00;34.47;97212.34;6203219;28;19926;-70
2023/01/27 15:09:24;;;;;;;;;;;;;;;-3.20;34.73;97197.91;6220235;28;19925;-71
2023/01/27 15:12:46;;;;;;;;;;;;;;;-3.25;34.83;97181.63;6202941;28;19948;-70
2023/01/27 15:15:57;;;;;;;;;;;;;;;-3.26;34.73;97189.34;6219175;28;19926;-70
2023/01/27 15:19:06;;;;;;;;;;;;;;;-3.39;34.98;97211.72;6220447;28;19936;-71
2023/01/27 15:22:29;;;;;;;;;;;;;;;-3.38;34.94;97185.09;6220119;28;19932;-70
2023/01/27 15:25:47;;;;;;;;;;;;;;;-3.50;34.91;97196.31;6220176;28;19937;-70
2023/01/27 15:28:49;;;;;;;;;;;;;;;-3.67;35.39;97190.38;6220136;28;20395;-70
2023/01/27 15:32:10;;;;;;;;;;;;;;;-3.65;35.74;97156.09;6220306;28;19929;-69
2023/01/27 15:35:22;;;;;;;;;;;;;;;-3.67;35.64;97173.25;6221952;28;19979;-70
2023/01/27 15:38:31;;;;;;;;;;;;;;;-3.63;35.63;97159.50;6223510;28;19925;-70
2023/01/27 15:41:49;;;;;;;;;;;;;;;-3.60;35.64;97184.34;6223652;28;20047;-70
2023/01/27 15:44:59;;;;;;;;;;;;;;;-3.73;35.97;97183.56;6207518;28;19926;-71
2023/01/27 15:48:05;;;;;;;;;;;;;;;-3.63;36.07;97174.91;6223577;28;20395;-70
2023/01/27 15:51:14;;;;;;;;;;;;;;;-3.69;36.27;97185.25;6190838;28;20023;-70
2023/01/27 15:54:21;;;;;;;;;;;;;;;-3.80;36.46;97212.69;6224768;28;20417;-70
2023/01/27 15:57:28;;;;;;;;;;;;;;;-3.70;36.25;97204.09;6207351;28;20015;-69
2023/01/27 16:00:31;;;;;;;;;;;;;;;-3.84;36.80;97188.72;6207168;28;19929;-70
2023/01/27 16:03:42;;;;;;;;;;;;;;;-3.84;36.72;97177.59;6207339;28;19933;-70
2023/01/27 16:06:50;;;;;;;;;;;;;;;-3.63;36.68;97179.22;6224636;28;19929;-69
2023/01/27 16:09:54;;;;;;;;;;;;;;;-3.73;37.28;97162.13;6207605;28;19961;-71
2023/01/27 16:13:15;;;;;;;;;;;;;;;-3.80;37.00;97166.41;6224290;28;20521;-71
2023/01/27 16:16:21;;;;;;;;;;;;;;;-3.75;36.99;97151.84;6222680;28;19936;-72
2023/01/27 16:19:28;;;;;;;;;;;;;;;-3.89;37.45;97157.03;6224204;28;19929;-71
2023/01/27 16:22:38;;;;;;;;;;;;;;;-3.79;37.67;97168.16;6224035;28;20207;-69
2023/01/27 16:25:44;;;;;;;;;;;;;;;-3.77;37.56;97186.97;6222802;28;19925;-70
2023/01/27 16:28:58;;;;;;;;;;;;;;;-3.70;37.71;97192.97;6223714;28;19933;-70
2023/01/27 16:32:03;;;;;;;;;;;;;;;-3.73;37.66;97188.69;6206183;28;19932;-70
2023/01/27 16:35:06;;;;;;;;;;;;;;;-3.75;37.86;97180.13;6223487;28;19925;-70
2023/01/27 16:38:19;;;;;;;;;;;;;;;-3.61;37.66;97173.22;6206418;28;19995;-72
2023/01/27 16:41:28;;;;;;;;;;;;;;;-3.53;38.05;97185.19;6223489;28;19971;-70
2023/01/27 16:44:39;;;;;;;;;;;;;;;-3.66;38.24;97190.38;6223511;28;19929;-70
2023/01/27 16:47:46;;;;;;;;;;;;;;;-3.65;38.32;97186.97;6205397;28;19926;-70
2023/01/27 16:50:48;;;;;;;;;;;;;;;-3.71;38.55;97207.56;6221965;28;19984;-69
2023/01/27 16:53:55;;;;;;;;;;;;;;;-3.74;38.90;97201.53;6222757;28;20311;-70
2023/01/27 16:56:57;;;;;;;;;;;;;;;-3.96;38.98;97193.03;6222023;28;19925;-71
2023/01/27 17:00:05;;;;;;;;;;;;;;;-3.85;39.25;97193.84;6221821;28;19937;-70
2023/01/27 17:03:16;;;;;;;;;;;;;;;-3.99;39.26;97185.34;6223040;28;19947;-69